createdAt,value
2019-01-26T00:00:48.989Z,13.60
2019-01-26T00:03:16.224Z,12.63
2019-01-26T00:05:44.251Z,10.85
2019-01-26T00:08:11.433Z,11.50
2019-01-26T00:10:38.456Z,11.50
2019-01-26T00:13:05.754Z,11.68
2019-01-26T00:15:32.763Z,10.00
2019-01-26T00:17:59.788Z,10.15
2019-01-26T00:20:26.870Z,11.45
2019-01-26T00:22:53.694Z,10.50
2019-01-26T00:25:20.836Z,9.55
2019-01-26T00:27:48.199Z,11.33
2019-01-26T00:30:15.668Z,10.70
2019-01-26T00:32:43.045Z,11.12
2019-01-26T00:35:10.040Z,10.08
2019-01-26T00:37:37.192Z,10.35
2019-01-26T00:40:05.280Z,10.03
2019-01-26T00:42:32.082Z,9.20
2019-01-26T00:44:59.141Z,9.15
2019-01-26T00:47:26.916Z,11.25
2019-01-26T00:49:53.996Z,11.45
2019-01-26T00:52:20.902Z,11.22
2019-01-26T00:54:49.022Z,10.93
2019-01-26T00:57:16.093Z,10.05
2019-01-26T00:59:43.109Z,10.23
2019-01-26T01:02:10.510Z,10.15
2019-01-26T01:04:37.577Z,10.10
2019-01-26T01:07:04.629Z,9.35
2019-01-26T01:09:31.690Z,9.78
2019-01-26T01:11:58.510Z,10.15
2019-01-26T01:14:25.700Z,10.08
2019-01-26T01:16:52.533Z,9.88
2019-01-26T01:19:19.339Z,9.68
2019-01-26T01:21:46.633Z,10.88
2019-01-26T01:24:13.942Z,9.00
2019-01-26T01:26:41.054Z,9.83
2019-01-26T01:29:08.013Z,10.72
2019-01-26T01:31:35.113Z,9.60
2019-01-26T01:34:02.106Z,9.48
2019-01-26T01:36:29.077Z,9.60
2019-01-26T01:38:56.106Z,9.63
2019-01-26T01:41:23.320Z,9.75
2019-01-26T01:43:50.522Z,9.50
2019-01-26T01:46:17.487Z,9.15
2019-01-26T01:48:44.287Z,9.45
2019-01-26T01:51:11.948Z,9.35
2019-01-26T01:53:38.850Z,8.55
2019-01-26T01:56:06.119Z,8.38
2019-01-26T01:58:32.927Z,9.55
2019-01-26T02:01:00.054Z,7.15
2019-01-26T02:03:26.958Z,9.00
2019-01-26T02:05:54.169Z,8.10
2019-01-26T02:08:21.261Z,7.85
2019-01-26T02:10:48.621Z,8.80
2019-01-26T02:13:15.552Z,9.15
2019-01-26T02:15:42.465Z,7.55
2019-01-26T02:18:09.483Z,7.97
2019-01-26T02:20:36.394Z,7.42
2019-01-26T02:23:03.835Z,6.62
2019-01-26T02:25:31.093Z,7.42
2019-01-26T02:27:57.901Z,7.35
2019-01-26T02:30:24.912Z,7.65
2019-01-26T02:32:51.812Z,7.85
2019-01-26T02:35:19.020Z,6.92
2019-01-26T02:37:45.922Z,7.35
2019-01-26T02:40:13.365Z,7.62
2019-01-26T02:42:40.560Z,6.45
2019-01-26T02:45:08.787Z,7.40
2019-01-26T02:47:35.806Z,6.67
2019-01-26T02:50:03.641Z,7.92
2019-01-26T02:52:30.458Z,6.67
2019-01-26T02:54:57.505Z,7.35
2019-01-26T02:57:24.615Z,7.37
2019-01-26T02:59:51.655Z,6.35
2019-01-26T03:02:18.582Z,7.15
2019-01-26T03:04:45.642Z,6.42
2019-01-26T03:07:12.648Z,6.30
2019-01-26T03:09:39.645Z,6.03
2019-01-26T03:12:06.563Z,6.40
2019-01-26T03:14:33.374Z,6.40
2019-01-26T03:17:05.928Z,6.65
2019-01-26T03:19:28.986Z,6.35
2019-01-26T03:21:56.074Z,6.00
2019-01-26T03:24:22.864Z,6.15
2019-01-26T03:26:51.392Z,5.83
2019-01-26T03:29:19.374Z,6.47
2019-01-26T03:31:46.262Z,6.45
2019-01-26T03:34:13.073Z,5.87
2019-01-26T03:36:40.250Z,5.90
2019-01-26T03:39:08.170Z,5.50
2019-01-26T03:41:35.547Z,7.05
2019-01-26T03:44:02.567Z,6.53
2019-01-26T03:46:29.362Z,6.90
2019-01-26T03:48:56.424Z,6.55
2019-01-26T03:51:23.439Z,6.22
2019-01-26T03:53:50.372Z,5.80
2019-01-26T03:56:17.422Z,6.20
2019-01-26T03:58:44.409Z,7.28
2019-01-26T04:01:11.313Z,5.62
2019-01-26T04:03:38.230Z,6.35
2019-01-26T04:06:05.226Z,6.28
2019-01-26T04:08:32.234Z,6.90
2019-01-26T04:10:59.659Z,6.83
2019-01-26T04:13:26.682Z,7.67
2019-01-26T04:15:53.481Z,8.30
2019-01-26T04:18:20.275Z,7.17
2019-01-26T04:20:47.305Z,6.97
2019-01-26T04:23:14.281Z,6.72
2019-01-26T04:25:41.090Z,6.85
2019-01-26T04:28:08.110Z,7.45
2019-01-26T04:30:35.041Z,8.48
2019-01-26T04:33:02.295Z,8.38
2019-01-26T04:35:29.109Z,8.28
2019-01-26T04:37:56.111Z,7.67
2019-01-26T04:40:23.173Z,9.00
2019-01-26T04:42:50.078Z,8.60
2019-01-26T04:45:21.760Z,8.70
2019-01-26T04:47:49.007Z,8.48
2019-01-26T04:50:16.652Z,8.33
2019-01-26T04:52:43.805Z,8.93
2019-01-26T04:55:11.171Z,8.70
2019-01-26T04:57:38.157Z,8.40
2019-01-26T05:00:08.740Z,9.25
2019-01-26T05:02:35.556Z,9.55
2019-01-26T05:05:03.069Z,9.25
2019-01-26T05:07:30.125Z,9.65
2019-01-26T05:09:57.045Z,10.18
2019-01-26T05:12:24.180Z,8.65
2019-01-26T05:14:51.268Z,9.30
2019-01-26T05:17:18.537Z,8.65
2019-01-26T05:19:45.337Z,9.35
2019-01-26T05:22:12.354Z,9.05
2019-01-26T05:24:39.256Z,8.75
2019-01-26T05:27:06.438Z,8.70
2019-01-26T05:29:33.355Z,10.30
2019-01-26T05:32:00.412Z,8.63
2019-01-26T05:34:27.362Z,8.48
2019-01-26T05:36:54.283Z,7.22
2019-01-26T05:39:21.429Z,8.88
2019-01-26T05:41:48.599Z,8.88
2019-01-26T05:44:15.605Z,8.50
2019-01-26T05:46:42.430Z,9.33
2019-01-26T05:49:09.568Z,8.45
2019-01-26T05:51:36.739Z,8.13
2019-01-26T05:54:03.934Z,7.90
2019-01-26T05:56:30.741Z,8.43
2019-01-26T05:58:57.958Z,8.43
2019-01-26T06:01:24.953Z,7.95
2019-01-26T06:03:52.108Z,8.10
2019-01-26T06:06:18.923Z,8.25
2019-01-26T06:08:45.730Z,6.50
2019-01-26T06:11:12.617Z,7.65
2019-01-26T06:13:39.512Z,7.70
2019-01-26T06:16:06.422Z,7.17
2019-01-26T06:18:33.212Z,7.90
2019-01-26T06:21:00.030Z,7.35
2019-01-26T06:23:26.831Z,8.03
2019-01-26T06:25:53.725Z,7.97
2019-01-26T06:28:20.642Z,8.63
2019-01-26T06:30:47.973Z,7.87
2019-01-26T06:33:14.780Z,8.03
2019-01-26T06:35:41.693Z,8.35
2019-01-26T06:38:08.861Z,8.65
2019-01-26T06:40:35.775Z,7.55
2019-01-26T06:43:02.729Z,8.63
2019-01-26T06:45:29.745Z,9.58
2019-01-26T06:48:02.064Z,7.72
2019-01-26T06:50:26.787Z,9.33
2019-01-26T06:52:53.745Z,8.25
2019-01-26T06:55:20.754Z,9.10
2019-01-26T06:57:47.909Z,9.25
2019-01-26T07:00:17.057Z,9.60
2019-01-26T07:02:44.089Z,9.35
2019-01-26T07:05:29.268Z,9.00
2019-01-26T07:07:56.205Z,9.25
2019-01-26T07:10:23.211Z,9.65
2019-01-26T07:12:50.382Z,8.85
2019-01-26T07:15:18.501Z,10.18
2019-01-26T07:17:45.484Z,10.13
2019-01-26T07:20:12.721Z,9.55
2019-01-26T07:22:39.666Z,9.78
2019-01-26T07:25:08.504Z,9.93
2019-01-26T07:27:36.027Z,9.20
2019-01-26T07:30:05.773Z,11.25
2019-01-26T07:32:32.597Z,9.75
2019-01-26T07:34:59.406Z,10.38
2019-01-26T07:37:26.343Z,10.28
2019-01-26T07:39:53.512Z,9.80
2019-01-26T07:42:20.658Z,10.15
2019-01-26T07:44:47.596Z,9.60
2019-01-26T07:47:14.496Z,9.63
2019-01-26T07:49:41.602Z,10.15
2019-01-26T07:52:08.629Z,9.98
2019-01-26T07:54:35.549Z,9.58
2019-01-26T07:57:02.353Z,8.38
2019-01-26T07:59:29.423Z,8.93
2019-01-26T08:01:56.464Z,9.15
2019-01-26T08:04:23.477Z,8.60
2019-01-26T08:06:50.553Z,8.75
2019-01-26T08:09:17.468Z,8.88
2019-01-26T08:11:44.465Z,9.85
2019-01-26T08:14:11.466Z,8.88
2019-01-26T08:16:38.288Z,9.65
2019-01-26T08:19:05.552Z,8.65
2019-01-26T08:21:33.264Z,9.00
2019-01-26T08:24:00.261Z,8.50
2019-01-26T08:26:27.373Z,8.68
2019-01-26T08:28:54.498Z,7.78
2019-01-26T08:31:21.591Z,8.20
2019-01-26T08:33:48.522Z,8.40
2019-01-26T08:36:15.330Z,8.15
2019-01-26T08:38:42.509Z,8.55
2019-01-26T08:41:09.770Z,9.38
2019-01-26T08:43:36.958Z,8.68
2019-01-26T08:46:04.345Z,8.53
2019-01-26T08:48:31.704Z,8.40
2019-01-26T08:50:59.090Z,8.33
2019-01-26T08:53:25.997Z,7.87
2019-01-26T08:55:53.082Z,7.80
2019-01-26T08:58:19.884Z,7.80
2019-01-26T09:00:47.014Z,8.20
2019-01-26T09:03:36.862Z,8.55
2019-01-26T09:06:07.193Z,8.30
2019-01-26T09:08:34.205Z,8.65
2019-01-26T09:11:01.213Z,8.35
2019-01-26T09:13:28.122Z,8.03
2019-01-26T09:15:54.929Z,7.42
2019-01-26T09:18:22.255Z,7.30
2019-01-26T09:20:49.345Z,7.72
2019-01-26T09:23:16.269Z,8.55
2019-01-26T09:25:43.429Z,8.43
2019-01-26T09:28:10.749Z,8.05
2019-01-26T09:30:37.775Z,8.83
2019-01-26T09:33:04.781Z,7.70
2019-01-26T09:35:32.049Z,8.30
2019-01-26T09:37:59.365Z,8.98
2019-01-26T09:40:26.369Z,8.55
2019-01-26T09:42:53.385Z,7.90
2019-01-26T09:45:20.378Z,9.35
2019-01-26T09:47:47.938Z,7.70
2019-01-26T09:50:16.217Z,7.45
2019-01-26T09:52:43.232Z,7.65
2019-01-26T09:55:10.236Z,7.62
2019-01-26T09:57:37.219Z,7.95
2019-01-26T10:00:06.108Z,7.40
2019-01-26T10:02:32.961Z,6.08
2019-01-26T10:04:59.862Z,6.87
2019-01-26T10:07:26.777Z,7.10
2019-01-26T10:09:54.407Z,6.42
2019-01-26T10:12:21.453Z,7.75
2019-01-26T10:14:48.257Z,6.80
2019-01-26T10:17:15.448Z,6.90
2019-01-26T10:19:42.261Z,6.92
2019-01-26T10:22:09.258Z,7.00
2019-01-26T10:24:37.137Z,6.00
2019-01-26T10:27:04.400Z,5.47
2019-01-26T10:29:31.226Z,4.97
2019-01-26T10:31:58.277Z,5.70
2019-01-26T10:34:25.463Z,6.55
2019-01-26T10:36:56.379Z,5.75
2019-01-26T10:39:23.193Z,6.60
2019-01-26T10:41:58.712Z,6.15
2019-01-26T10:44:30.065Z,6.72
2019-01-26T10:46:57.146Z,5.60
2019-01-26T10:49:24.329Z,5.75
2019-01-26T10:51:51.375Z,5.85
2019-01-26T10:54:18.649Z,6.25
2019-01-26T10:56:45.666Z,6.70
2019-01-26T10:59:12.978Z,6.37
2019-01-26T11:01:39.867Z,7.12
2019-01-26T11:04:06.924Z,5.83
2019-01-26T11:06:34.193Z,5.40
2019-01-26T11:09:01.488Z,6.10
2019-01-26T11:11:28.493Z,6.03
2019-01-26T11:13:55.640Z,5.50
2019-01-26T11:16:22.665Z,6.95
2019-01-26T11:18:49.741Z,6.05
2019-01-26T11:21:16.760Z,5.97
2019-01-26T11:23:43.817Z,5.95
2019-01-26T11:26:10.724Z,6.30
2019-01-26T11:28:37.526Z,5.62
2019-01-26T11:31:04.682Z,6.62
2019-01-26T11:33:31.833Z,6.08
2019-01-26T11:35:58.750Z,6.10
2019-01-26T11:38:25.901Z,6.37
2019-01-26T11:40:53.213Z,6.78
2019-01-26T11:43:20.389Z,6.00
2019-01-26T11:45:54.112Z,5.67
2019-01-26T11:48:23.893Z,6.25
2019-01-26T11:50:55.869Z,6.10
2019-01-26T11:53:22.874Z,5.78
2019-01-26T11:55:57.682Z,5.67
2019-01-26T11:58:24.738Z,7.10
2019-01-26T12:01:12.192Z,5.22
2019-01-26T12:03:59.774Z,6.03
2019-01-26T12:06:34.977Z,5.22
2019-01-26T12:09:03.478Z,6.00
2019-01-26T12:11:30.508Z,5.65
2019-01-26T12:13:57.500Z,5.62
2019-01-26T12:16:26.974Z,6.12
2019-01-26T12:18:53.451Z,6.05
2019-01-26T12:21:20.764Z,6.22
2019-01-26T12:23:47.943Z,6.40
2019-01-26T12:26:15.108Z,5.58
2019-01-26T12:28:42.198Z,5.20
2019-01-26T12:31:09.472Z,6.20
2019-01-26T12:33:36.540Z,4.70
2019-01-26T12:36:03.610Z,5.60
2019-01-26T12:38:30.752Z,5.10
2019-01-26T12:40:57.545Z,5.85
2019-01-26T12:43:24.814Z,5.37
2019-01-26T12:45:52.056Z,5.80
2019-01-26T12:48:19.341Z,4.70
2019-01-26T12:50:46.238Z,5.42
2019-01-26T12:53:13.144Z,5.15
2019-01-26T12:55:40.537Z,5.53
2019-01-26T12:58:07.570Z,4.90
2019-01-26T13:00:34.926Z,5.42
2019-01-26T13:03:01.746Z,5.70
2019-01-26T13:05:29.359Z,4.58
2019-01-26T13:07:56.270Z,5.42
2019-01-26T13:10:27.114Z,5.10
2019-01-26T13:12:54.054Z,4.85
2019-01-26T13:15:21.317Z,5.45
2019-01-26T13:17:48.477Z,4.70
2019-01-26T13:20:15.877Z,5.08
2019-01-26T13:22:42.862Z,4.75
2019-01-26T13:25:10.829Z,6.00
2019-01-26T13:27:38.068Z,5.55
2019-01-26T13:30:08.986Z,5.12
2019-01-26T13:32:35.892Z,5.53
2019-01-26T13:35:03.404Z,4.75
2019-01-26T13:37:30.465Z,5.62
2019-01-26T13:39:57.285Z,5.05
2019-01-26T13:42:24.310Z,4.92
2019-01-26T13:44:51.316Z,5.47
2019-01-26T13:47:18.350Z,5.30
2019-01-26T13:49:45.265Z,5.17
2019-01-26T13:52:12.278Z,5.53
2019-01-26T13:54:39.345Z,5.60
2019-01-26T13:57:06.353Z,4.75
2019-01-26T13:59:33.275Z,4.87
2019-01-26T14:02:00.274Z,5.20
2019-01-26T14:04:27.288Z,5.05
2019-01-26T14:06:54.572Z,4.75
2019-01-26T14:09:21.382Z,4.95
2019-01-26T14:11:48.422Z,5.42
2019-01-26T14:14:15.229Z,5.30
2019-01-26T14:16:42.306Z,5.10
2019-01-26T14:19:09.222Z,5.15
2019-01-26T14:21:36.248Z,5.00
2019-01-26T14:24:03.524Z,5.03
2019-01-26T14:26:30.449Z,4.90
2019-01-26T14:28:57.260Z,5.15
2019-01-26T14:31:24.281Z,4.65
2019-01-26T14:33:51.197Z,4.85
2019-01-26T14:36:18.100Z,5.00
2019-01-26T14:38:45.166Z,4.58
2019-01-26T14:41:12.074Z,5.33
2019-01-26T14:43:38.985Z,5.00
2019-01-26T14:46:05.902Z,4.60
2019-01-26T14:48:33.077Z,4.30
2019-01-26T14:51:00.170Z,4.62
2019-01-26T14:53:27.632Z,5.05
2019-01-26T14:55:54.439Z,4.97
2019-01-26T14:58:21.726Z,5.00
2019-01-26T15:00:48.974Z,4.70
2019-01-26T15:03:15.796Z,5.05
2019-01-26T15:05:42.808Z,5.58
2019-01-26T15:08:09.642Z,4.78
2019-01-26T15:10:36.553Z,4.50
2019-01-26T15:13:03.921Z,4.60
2019-01-26T15:15:31.210Z,5.10
2019-01-26T15:17:58.231Z,4.20
2019-01-26T15:20:30.561Z,5.00
2019-01-26T15:22:57.482Z,4.22
2019-01-26T15:25:24.493Z,4.70
2019-01-26T15:27:51.648Z,4.78
2019-01-26T15:30:21.274Z,4.80
2019-01-26T15:32:48.289Z,5.30
2019-01-26T15:35:15.461Z,5.58
2019-01-26T15:37:42.384Z,4.28
2019-01-26T15:40:09.568Z,5.50
2019-01-26T15:42:36.626Z,5.55
2019-01-26T15:45:06.440Z,5.05
2019-01-26T15:47:33.357Z,5.87
2019-01-26T15:50:00.315Z,6.42
2019-01-26T15:52:27.274Z,5.65
2019-01-26T15:54:54.420Z,5.70
2019-01-26T15:57:21.580Z,6.05
2019-01-26T15:59:53.365Z,5.83
2019-01-26T16:02:17.210Z,6.28
2019-01-26T16:04:44.128Z,6.40
2019-01-26T16:07:11.177Z,6.00
2019-01-26T16:09:38.333Z,6.80
2019-01-26T16:12:05.346Z,6.20
2019-01-26T16:14:32.165Z,6.45
2019-01-26T16:16:59.171Z,6.35
2019-01-26T16:19:26.318Z,6.75
2019-01-26T16:21:53.399Z,7.10
2019-01-26T16:24:20.478Z,6.75
2019-01-26T16:26:49.688Z,6.25
2019-01-26T16:29:16.576Z,6.58
2019-01-26T16:31:43.488Z,5.42
2019-01-26T16:34:10.377Z,6.42
2019-01-26T16:36:37.164Z,6.05
2019-01-26T16:39:08.097Z,6.00
2019-01-26T16:41:35.094Z,5.80
2019-01-26T16:44:02.105Z,5.80
2019-01-26T16:46:29.294Z,6.00
2019-01-26T16:48:56.513Z,6.72
2019-01-26T16:51:23.409Z,6.17
2019-01-26T16:53:50.469Z,6.10
2019-01-26T16:56:17.354Z,6.80
2019-01-26T16:58:44.436Z,6.60
2019-01-26T17:01:11.594Z,6.17
2019-01-26T17:03:38.608Z,6.60
2019-01-26T17:06:05.901Z,6.37
2019-01-26T17:08:33.414Z,7.35
2019-01-26T17:11:00.745Z,6.72
2019-01-26T17:13:27.782Z,6.70
2019-01-26T17:15:54.857Z,5.95
2019-01-26T17:18:22.140Z,6.10
2019-01-26T17:20:49.311Z,6.58
2019-01-26T17:23:16.268Z,6.20
2019-01-26T17:25:43.532Z,6.55
2019-01-26T17:28:10.479Z,6.03
2019-01-26T17:30:39.531Z,5.55
2019-01-26T17:33:07.483Z,5.50
2019-01-26T17:35:35.052Z,5.62
2019-01-26T17:38:02.408Z,5.70
2019-01-26T17:40:29.327Z,5.90
2019-01-26T17:42:56.125Z,6.22
2019-01-26T17:45:23.497Z,5.87
2019-01-26T17:47:50.726Z,6.08
2019-01-26T17:50:19.189Z,6.00
2019-01-26T17:52:46.321Z,5.12
2019-01-26T17:55:13.732Z,6.40
2019-01-26T17:57:40.732Z,6.40
2019-01-26T18:00:22.466Z,7.72
2019-01-26T18:02:49.369Z,6.60
2019-01-26T18:05:16.727Z,7.95
2019-01-26T18:07:43.879Z,7.83
2019-01-26T18:10:13.269Z,9.00
2019-01-26T18:12:40.313Z,7.47
2019-01-26T18:15:09.274Z,7.62
2019-01-26T18:17:36.222Z,8.68
2019-01-26T18:20:03.899Z,8.55
2019-01-26T18:22:31.181Z,8.18
2019-01-26T18:24:58.090Z,8.90
2019-01-26T18:27:25.261Z,8.68
2019-01-26T18:29:52.150Z,8.68
2019-01-26T18:32:20.906Z,9.15
2019-01-26T18:34:48.053Z,9.35
2019-01-26T18:37:15.075Z,9.05
2019-01-26T18:39:42.264Z,8.60
2019-01-26T18:42:09.338Z,9.33
2019-01-26T18:44:36.242Z,8.73
2019-01-26T18:47:03.637Z,8.43
2019-01-26T18:49:30.546Z,9.00
2019-01-26T18:51:57.373Z,8.40
2019-01-26T18:54:24.181Z,8.58
2019-01-26T18:56:51.242Z,8.75
2019-01-26T18:59:18.042Z,8.65
2019-01-26T19:01:44.873Z,8.75
2019-01-26T19:04:21.959Z,7.72
2019-01-26T19:06:49.150Z,8.60
2019-01-26T19:09:16.153Z,8.95
2019-01-26T19:11:43.691Z,9.10
2019-01-26T19:14:10.605Z,8.65
2019-01-26T19:16:37.510Z,8.25
2019-01-26T19:19:04.661Z,8.60
2019-01-26T19:21:31.668Z,8.75
2019-01-26T19:23:58.685Z,8.60
2019-01-26T19:26:25.597Z,8.38
2019-01-26T19:28:52.398Z,10.53
2019-01-26T19:31:19.317Z,9.05
2019-01-26T19:33:46.428Z,7.70
2019-01-26T19:36:13.381Z,7.53
2019-01-26T19:38:40.460Z,8.20
2019-01-26T19:41:07.457Z,7.30
2019-01-26T19:43:34.481Z,7.85
2019-01-26T19:46:01.747Z,6.95
2019-01-26T19:48:28.565Z,7.47
2019-01-26T19:50:55.375Z,6.40
2019-01-26T19:53:22.679Z,6.70
2019-01-26T19:55:49.694Z,6.28
2019-01-26T19:58:16.978Z,5.37
2019-01-26T20:00:43.772Z,5.62
2019-01-26T20:03:15.602Z,5.50
2019-01-26T20:05:48.049Z,4.90
2019-01-26T20:08:11.422Z,5.12
2019-01-26T20:10:38.637Z,5.55
2019-01-26T20:13:05.773Z,5.40
2019-01-26T20:15:32.783Z,5.60
2019-01-26T20:17:59.705Z,4.75
2019-01-26T20:20:28.949Z,4.85
2019-01-26T20:22:56.204Z,4.75
2019-01-26T20:25:23.219Z,5.40
2019-01-26T20:27:50.218Z,5.00
2019-01-26T20:30:20.183Z,5.58
2019-01-26T20:32:47.086Z,5.97
2019-01-26T20:35:14.402Z,5.85
2019-01-26T20:37:41.320Z,6.28
2019-01-26T20:40:10.661Z,5.90
2019-01-26T20:42:37.466Z,6.35
2019-01-26T20:45:06.927Z,6.95
2019-01-26T20:47:33.720Z,6.33
2019-01-26T20:50:00.638Z,6.83
2019-01-26T20:52:27.632Z,7.28
2019-01-26T20:54:54.450Z,7.25
2019-01-26T20:57:21.506Z,7.20
2019-01-26T20:59:48.421Z,7.30
2019-01-26T21:02:15.216Z,7.30
2019-01-26T21:04:42.016Z,7.00
2019-01-26T21:07:10.913Z,6.92
2019-01-26T21:09:37.876Z,7.28
2019-01-26T21:12:05.134Z,8.20
2019-01-26T21:14:32.388Z,8.10
2019-01-26T21:16:59.205Z,6.95
2019-01-26T21:19:26.128Z,7.60
2019-01-26T21:21:53.301Z,8.55
2019-01-26T21:24:20.218Z,7.62
2019-01-26T21:26:47.386Z,8.10
2019-01-26T21:29:14.401Z,7.87
2019-01-26T21:31:41.580Z,7.47
2019-01-26T21:34:08.739Z,7.95
2019-01-26T21:36:35.758Z,7.53
2019-01-26T21:39:06.627Z,7.35
2019-01-26T21:41:33.554Z,7.03
2019-01-26T21:44:00.838Z,6.80
2019-01-26T21:46:27.765Z,6.80
2019-01-26T21:48:54.839Z,6.53
2019-01-26T21:51:21.757Z,7.00
2019-01-26T21:53:49.017Z,6.22
2019-01-26T21:56:15.962Z,6.87
2019-01-26T21:58:42.760Z,5.83
2019-01-26T22:01:09.681Z,6.58
2019-01-26T22:03:37.357Z,6.60
2019-01-26T22:06:04.524Z,5.58
2019-01-26T22:08:31.854Z,5.80
2019-01-26T22:10:59.373Z,7.22
2019-01-26T22:13:26.326Z,6.20
2019-01-26T22:15:53.134Z,5.70
2019-01-26T22:18:20.325Z,6.10
2019-01-26T22:20:47.132Z,6.47
2019-01-26T22:23:13.957Z,5.90
2019-01-26T22:25:40.976Z,7.00
2019-01-26T22:28:07.985Z,6.47
2019-01-26T22:30:35.095Z,6.95
2019-01-26T22:33:02.274Z,6.20
2019-01-26T22:35:29.632Z,6.50
2019-01-26T22:37:57.181Z,6.55
2019-01-26T22:40:29.453Z,7.10
2019-01-26T22:42:56.762Z,6.67
2019-01-26T22:45:23.979Z,7.00
2019-01-26T22:47:51.429Z,6.78
2019-01-26T22:50:18.934Z,6.28
2019-01-26T22:52:45.954Z,7.12
2019-01-26T22:55:13.908Z,6.33
2019-01-26T22:57:40.994Z,6.15
2019-01-26T23:00:14.870Z,6.83
2019-01-26T23:02:41.821Z,6.20
2019-01-26T23:05:30.280Z,6.33
2019-01-26T23:08:02.566Z,6.22
2019-01-26T23:11:10.232Z,6.50
2019-01-26T23:14:11.581Z,7.03
2019-01-26T23:17:22.345Z,5.53
2019-01-26T23:20:10.384Z,6.37
2019-01-26T23:23:28.279Z,6.10
2019-01-26T23:26:21.949Z,5.58
2019-01-26T23:29:58.029Z,6.75
2019-01-26T23:32:25.049Z,5.67
2019-01-26T23:34:51.971Z,6.17
2019-01-26T23:37:18.786Z,6.25
2019-01-26T23:39:45.709Z,5.55
2019-01-26T23:42:12.747Z,5.95
2019-01-26T23:44:39.559Z,6.35
2019-01-26T23:47:06.570Z,6.40
2019-01-26T23:49:33.611Z,6.60
2019-01-26T23:52:00.530Z,5.60
2019-01-26T23:54:27.341Z,6.33
2019-01-26T23:56:54.272Z,7.83
2019-01-26T23:59:21.533Z,5.70
